sensor_id;sensor_type;location;lat;lon;timestamp;P1;durP1;ratioP1;P2;durP2;ratioP2
23988;SDS011;74667;52.136;5.592;2024-02-28T00:01:15;88.97;;;37.15;;
23988;SDS011;74667;52.136;5.592;2024-02-28T00:03:40;95.10;;;37.67;;
23988;SDS011;74667;52.136;5.592;2024-02-28T00:06:06;85.87;;;36.50;;
23988;SDS011;74667;52.136;5.592;2024-02-28T00:08:31;89.80;;;36.17;;
23988;SDS011;74667;52.136;5.592;2024-02-28T00:10:56;85.18;;;36.72;;
23988;SDS011;74667;52.136;5.592;2024-02-28T00:13:21;90.90;;;36.17;;
23988;SDS011;74667;52.136;5.592;2024-02-28T00:15:48;80.22;;;34.38;;
23988;SDS011;74667;52.136;5.592;2024-02-28T00:18:13;78.78;;;33.70;;
23988;SDS011;74667;52.136;5.592;2024-02-28T00:20:38;74.07;;;34.13;;
23988;SDS011;74667;52.136;5.592;2024-02-28T00:23:03;75.67;;;33.33;;
23988;SDS011;74667;52.136;5.592;2024-02-28T00:25:28;73.72;;;32.35;;
23988;SDS011;74667;52.136;5.592;2024-02-28T00:27:54;76.32;;;33.08;;
23988;SDS011;74667;52.136;5.592;2024-02-28T00:30:19;75.67;;;32.97;;
23988;SDS011;74667;52.136;5.592;2024-02-28T00:32:44;77.88;;;33.88;;
23988;SDS011;74667;52.136;5.592;2024-02-28T00:35:09;79.07;;;34.60;;
23988;SDS011;74667;52.136;5.592;2024-02-28T00:37:34;74.60;;;32.30;;
23988;SDS011;74667;52.136;5.592;2024-02-28T00:39:59;73.73;;;31.93;;
23988;SDS011;74667;52.136;5.592;2024-02-28T00:42:25;67.17;;;31.60;;
23988;SDS011;74667;52.136;5.592;2024-02-28T00:44:50;66.03;;;30.17;;
23988;SDS011;74667;52.136;5.592;2024-02-28T00:47:15;66.50;;;31.00;;
23988;SDS011;74667;52.136;5.592;2024-02-28T00:49:40;65.63;;;31.27;;
23988;SDS011;74667;52.136;5.592;2024-02-28T00:52:06;68.57;;;31.48;;
23988;SDS011;74667;52.136;5.592;2024-02-28T00:54:31;67.03;;;30.75;;
23988;SDS011;74667;52.136;5.592;2024-02-28T00:56:56;70.10;;;31.65;;
23988;SDS011;74667;52.136;5.592;2024-02-28T00:59:21;75.50;;;32.83;;
23988;SDS011;74667;52.136;5.592;2024-02-28T01:01:48;70.82;;;32.78;;
23988;SDS011;74667;52.136;5.592;2024-02-28T01:04:13;73.07;;;31.98;;
23988;SDS011;74667;52.136;5.592;2024-02-28T01:06:38;74.23;;;33.20;;
23988;SDS011;74667;52.136;5.592;2024-02-28T01:09:03;78.50;;;33.47;;
23988;SDS011;74667;52.136;5.592;2024-02-28T01:11:29;77.38;;;33.72;;
23988;SDS011;74667;52.136;5.592;2024-02-28T01:13:55;74.50;;;32.23;;
23988;SDS011;74667;52.136;5.592;2024-02-28T01:16:20;67.70;;;31.30;;
23988;SDS011;74667;52.136;5.592;2024-02-28T01:18:45;72.95;;;33.55;;
23988;SDS011;74667;52.136;5.592;2024-02-28T01:21:10;78.83;;;34.13;;
23988;SDS011;74667;52.136;5.592;2024-02-28T01:23:35;71.80;;;32.70;;
23988;SDS011;74667;52.136;5.592;2024-02-28T01:26:00;73.60;;;31.30;;
23988;SDS011;74667;52.136;5.592;2024-02-28T01:28:28;69.28;;;31.60;;
23988;SDS011;74667;52.136;5.592;2024-02-28T01:30:53;83.87;;;32.40;;
23988;SDS011;74667;52.136;5.592;2024-02-28T01:33:18;60.85;;;30.30;;
23988;SDS011;74667;52.136;5.592;2024-02-28T01:35:44;86.90;;;32.95;;
23988;SDS011;74667;52.136;5.592;2024-02-28T01:38:09;67.00;;;30.40;;
23988;SDS011;74667;52.136;5.592;2024-02-28T01:40:34;80.45;;;31.30;;
23988;SDS011;74667;52.136;5.592;2024-02-28T01:43:08;67.78;;;30.20;;
23988;SDS011;74667;52.136;5.592;2024-02-28T01:45:34;67.15;;;29.73;;
23988;SDS011;74667;52.136;5.592;2024-02-28T01:47:59;69.25;;;28.60;;
23988;SDS011;74667;52.136;5.592;2024-02-28T01:50:24;54.88;;;27.73;;
23988;SDS011;74667;52.136;5.592;2024-02-28T01:52:49;93.57;;;28.67;;
23988;SDS011;74667;52.136;5.592;2024-02-28T01:55:15;130.65;;;28.60;;
23988;SDS011;74667;52.136;5.592;2024-02-28T01:57:40;73.88;;;27.65;;
23988;SDS011;74667;52.136;5.592;2024-02-28T02:00:06;101.93;;;27.70;;
23988;SDS011;74667;52.136;5.592;2024-02-28T02:02:33;74.15;;;26.17;;
23988;SDS011;74667;52.136;5.592;2024-02-28T02:04:58;82.53;;;28.83;;
23988;SDS011;74667;52.136;5.592;2024-02-28T02:07:24;84.90;;;27.42;;
23988;SDS011;74667;52.136;5.592;2024-02-28T02:09:49;58.65;;;26.90;;
23988;SDS011;74667;52.136;5.592;2024-02-28T02:12:15;73.93;;;28.52;;
23988;SDS011;74667;52.136;5.592;2024-02-28T02:14:41;93.80;;;28.88;;
23988;SDS011;74667;52.136;5.592;2024-02-28T02:17:06;87.40;;;28.10;;
23988;SDS011;74667;52.136;5.592;2024-02-28T02:19:31;55.97;;;27.67;;
23988;SDS011;74667;52.136;5.592;2024-02-28T02:21:57;63.00;;;29.60;;
23988;SDS011;74667;52.136;5.592;2024-02-28T02:24:23;89.03;;;30.40;;
23988;SDS011;74667;52.136;5.592;2024-02-28T02:26:48;81.65;;;28.92;;
23988;SDS011;74667;52.136;5.592;2024-02-28T02:29:16;62.72;;;27.23;;
23988;SDS011;74667;52.136;5.592;2024-02-28T02:31:41;49.60;;;26.07;;
23988;SDS011;74667;52.136;5.592;2024-02-28T02:34:07;54.15;;;25.58;;
23988;SDS011;74667;52.136;5.592;2024-02-28T02:36:32;75.97;;;27.20;;
23988;SDS011;74667;52.136;5.592;2024-02-28T02:38:57;53.40;;;25.73;;
23988;SDS011;74667;52.136;5.592;2024-02-28T02:41:22;67.47;;;27.25;;
23988;SDS011;74667;52.136;5.592;2024-02-28T02:43:48;63.27;;;26.40;;
23988;SDS011;74667;52.136;5.592;2024-02-28T02:46:13;53.50;;;27.65;;
23988;SDS011;74667;52.136;5.592;2024-02-28T02:48:38;53.77;;;26.50;;
23988;SDS011;74667;52.136;5.592;2024-02-28T02:51:03;47.85;;;24.73;;
23988;SDS011;74667;52.136;5.592;2024-02-28T02:53:28;58.95;;;27.25;;
23988;SDS011;74667;52.136;5.592;2024-02-28T02:55:54;51.80;;;26.50;;
23988;SDS011;74667;52.136;5.592;2024-02-28T02:58:19;50.17;;;25.88;;
23988;SDS011;74667;52.136;5.592;2024-02-28T03:00:44;52.40;;;25.90;;
23988;SDS011;74667;52.136;5.592;2024-02-28T03:03:09;48.63;;;24.83;;
23988;SDS011;74667;52.136;5.592;2024-02-28T03:05:34;59.53;;;26.77;;
23988;SDS011;74667;52.136;5.592;2024-02-28T03:08:00;47.65;;;25.00;;
23988;SDS011;74667;52.136;5.592;2024-02-28T03:10:25;49.80;;;26.13;;
23988;SDS011;74667;52.136;5.592;2024-02-28T03:12:50;46.45;;;24.95;;
23988;SDS011;74667;52.136;5.592;2024-02-28T03:15:15;51.17;;;25.48;;
23988;SDS011;74667;52.136;5.592;2024-02-28T03:17:41;47.40;;;25.27;;
23988;SDS011;74667;52.136;5.592;2024-02-28T03:20:07;44.75;;;24.75;;
23988;SDS011;74667;52.136;5.592;2024-02-28T03:22:32;46.33;;;24.85;;
23988;SDS011;74667;52.136;5.592;2024-02-28T03:24:58;51.75;;;25.65;;
23988;SDS011;74667;52.136;5.592;2024-02-28T03:27:23;46.45;;;25.88;;
23988;SDS011;74667;52.136;5.592;2024-02-28T03:29:49;49.10;;;25.10;;
23988;SDS011;74667;52.136;5.592;2024-02-28T03:32:14;45.97;;;23.97;;
23988;SDS011;74667;52.136;5.592;2024-02-28T03:34:39;46.38;;;25.33;;
23988;SDS011;74667;52.136;5.592;2024-02-28T03:37:04;48.45;;;25.33;;
23988;SDS011;74667;52.136;5.592;2024-02-28T03:39:30;45.28;;;25.70;;
23988;SDS011;74667;52.136;5.592;2024-02-28T03:41:55;46.10;;;24.83;;
23988;SDS011;74667;52.136;5.592;2024-02-28T03:44:21;48.80;;;25.58;;
23988;SDS011;74667;52.136;5.592;2024-02-28T03:46:46;52.20;;;27.17;;
23988;SDS011;74667;52.136;5.592;2024-02-28T03:49:11;51.30;;;26.43;;
23988;SDS011;74667;52.136;5.592;2024-02-28T03:51:42;47.08;;;24.42;;
23988;SDS011;74667;52.136;5.592;2024-02-28T03:54:08;50.35;;;27.58;;
23988;SDS011;74667;52.136;5.592;2024-02-28T03:56:33;49.42;;;25.85;;
23988;SDS011;74667;52.136;5.592;2024-02-28T03:59:00;50.53;;;26.40;;
23988;SDS011;74667;52.136;5.592;2024-02-28T04:01:25;49.08;;;26.27;;
23988;SDS011;74667;52.136;5.592;2024-02-28T04:03:50;46.50;;;25.88;;
23988;SDS011;74667;52.136;5.592;2024-02-28T04:06:15;46.05;;;25.15;;
23988;SDS011;74667;52.136;5.592;2024-02-28T04:08:41;51.07;;;26.30;;
23988;SDS011;74667;52.136;5.592;2024-02-28T04:11:06;49.72;;;26.42;;
23988;SDS011;74667;52.136;5.592;2024-02-28T04:13:32;45.03;;;25.48;;
23988;SDS011;74667;52.136;5.592;2024-02-28T04:15:57;45.90;;;25.37;;
23988;SDS011;74667;52.136;5.592;2024-02-28T04:18:22;47.13;;;24.83;;
23988;SDS011;74667;52.136;5.592;2024-02-28T04:20:47;43.23;;;24.57;;
23988;SDS011;74667;52.136;5.592;2024-02-28T04:23:13;46.95;;;25.27;;
23988;SDS011;74667;52.136;5.592;2024-02-28T04:25:38;45.55;;;23.77;;
23988;SDS011;74667;52.136;5.592;2024-02-28T04:28:05;42.53;;;24.13;;
23988;SDS011;74667;52.136;5.592;2024-02-28T04:30:30;47.22;;;26.52;;
23988;SDS011;74667;52.136;5.592;2024-02-28T04:32:56;46.92;;;25.48;;
23988;SDS011;74667;52.136;5.592;2024-02-28T04:35:21;45.83;;;24.95;;
23988;SDS011;74667;52.136;5.592;2024-02-28T04:37:46;48.15;;;25.23;;
23988;SDS011;74667;52.136;5.592;2024-02-28T04:40:12;45.33;;;24.38;;
23988;SDS011;74667;52.136;5.592;2024-02-28T04:42:37;41.78;;;23.75;;
23988;SDS011;74667;52.136;5.592;2024-02-28T04:45:03;47.28;;;24.42;;
23988;SDS011;74667;52.136;5.592;2024-02-28T04:47:28;41.65;;;24.15;;
23988;SDS011;74667;52.136;5.592;2024-02-28T04:49:54;41.85;;;23.85;;
23988;SDS011;74667;52.136;5.592;2024-02-28T04:52:19;40.35;;;23.63;;
23988;SDS011;74667;52.136;5.592;2024-02-28T04:54:44;36.55;;;22.27;;
23988;SDS011;74667;52.136;5.592;2024-02-28T04:57:10;38.03;;;23.00;;
23988;SDS011;74667;52.136;5.592;2024-02-28T04:59:35;39.35;;;23.27;;
23988;SDS011;74667;52.136;5.592;2024-02-28T05:02:00;45.28;;;24.13;;
23988;SDS011;74667;52.136;5.592;2024-02-28T05:04:26;43.67;;;24.53;;
23988;SDS011;74667;52.136;5.592;2024-02-28T05:06:51;42.78;;;23.08;;
23988;SDS011;74667;52.136;5.592;2024-02-28T05:09:17;44.50;;;23.43;;
23988;SDS011;74667;52.136;5.592;2024-02-28T05:11:43;39.70;;;23.00;;
23988;SDS011;74667;52.136;5.592;2024-02-28T05:14:09;41.15;;;24.02;;
23988;SDS011;74667;52.136;5.592;2024-02-28T05:16:35;41.42;;;23.65;;
23988;SDS011;74667;52.136;5.592;2024-02-28T05:19:00;40.63;;;23.73;;
23988;SDS011;74667;52.136;5.592;2024-02-28T05:21:25;40.75;;;23.35;;
23988;SDS011;74667;52.136;5.592;2024-02-28T05:23:50;40.10;;;23.15;;
23988;SDS011;74667;52.136;5.592;2024-02-28T05:26:15;39.28;;;22.98;;
23988;SDS011;74667;52.136;5.592;2024-02-28T05:28:41;39.30;;;22.77;;
23988;SDS011;74667;52.136;5.592;2024-02-28T05:33:46;34.70;;;21.83;;
23988;SDS011;74667;52.136;5.592;2024-02-28T05:36:11;35.92;;;22.30;;
23988;SDS011;74667;52.136;5.592;2024-02-28T05:38:36;33.57;;;21.30;;
23988;SDS011;74667;52.136;5.592;2024-02-28T05:41:02;34.70;;;20.92;;
23988;SDS011;74667;52.136;5.592;2024-02-28T05:43:27;31.17;;;20.05;;
23988;SDS011;74667;52.136;5.592;2024-02-28T05:45:52;31.40;;;20.10;;
23988;SDS011;74667;52.136;5.592;2024-02-28T05:48:17;34.20;;;20.88;;
23988;SDS011;74667;52.136;5.592;2024-02-28T05:50:43;35.38;;;20.35;;
23988;SDS011;74667;52.136;5.592;2024-02-28T05:53:08;33.00;;;19.65;;
23988;SDS011;74667;52.136;5.592;2024-02-28T05:55:34;29.83;;;19.80;;
23988;SDS011;74667;52.136;5.592;2024-02-28T05:57:59;32.13;;;20.83;;
23988;SDS011;74667;52.136;5.592;2024-02-28T06:00:24;30.10;;;19.77;;
23988;SDS011;74667;52.136;5.592;2024-02-28T06:02:49;33.75;;;20.92;;
23988;SDS011;74667;52.136;5.592;2024-02-28T06:05:14;35.73;;;21.07;;
23988;SDS011;74667;52.136;5.592;2024-02-28T06:07:39;31.67;;;20.52;;
23988;SDS011;74667;52.136;5.592;2024-02-28T06:10:05;35.33;;;21.37;;
23988;SDS011;74667;52.136;5.592;2024-02-28T06:12:30;37.75;;;20.98;;
23988;SDS011;74667;52.136;5.592;2024-02-28T06:14:55;37.25;;;21.48;;
23988;SDS011;74667;52.136;5.592;2024-02-28T06:17:20;31.95;;;20.67;;
23988;SDS011;74667;52.136;5.592;2024-02-28T06:19:46;34.83;;;21.45;;
23988;SDS011;74667;52.136;5.592;2024-02-28T06:22:11;32.40;;;21.13;;
23988;SDS011;74667;52.136;5.592;2024-02-28T06:24:38;38.05;;;21.13;;
23988;SDS011;74667;52.136;5.592;2024-02-28T06:27:04;35.85;;;21.55;;
23988;SDS011;74667;52.136;5.592;2024-02-28T06:29:30;37.08;;;22.65;;
23988;SDS011;74667;52.136;5.592;2024-02-28T06:31:55;40.83;;;23.83;;
23988;SDS011;74667;52.136;5.592;2024-02-28T06:34:20;37.45;;;22.63;;
23988;SDS011;74667;52.136;5.592;2024-02-28T06:36:47;34.67;;;22.27;;
23988;SDS011;74667;52.136;5.592;2024-02-28T06:39:12;40.00;;;22.73;;
23988;SDS011;74667;52.136;5.592;2024-02-28T06:41:37;39.40;;;24.00;;
23988;SDS011;74667;52.136;5.592;2024-02-28T06:44:03;43.70;;;23.50;;
23988;SDS011;74667;52.136;5.592;2024-02-28T06:46:28;35.10;;;22.58;;
23988;SDS011;74667;52.136;5.592;2024-02-28T06:48:53;35.35;;;22.15;;
23988;SDS011;74667;52.136;5.592;2024-02-28T06:51:18;40.13;;;24.20;;
23988;SDS011;74667;52.136;5.592;2024-02-28T06:53:44;39.72;;;22.58;;
23988;SDS011;74667;52.136;5.592;2024-02-28T06:56:09;38.67;;;23.17;;
23988;SDS011;74667;52.136;5.592;2024-02-28T06:58:34;40.20;;;23.13;;
23988;SDS011;74667;52.136;5.592;2024-02-28T07:00:59;37.55;;;23.38;;
23988;SDS011;74667;52.136;5.592;2024-02-28T07:03:24;39.63;;;23.77;;
23988;SDS011;74667;52.136;5.592;2024-02-28T07:05:49;43.35;;;23.63;;
23988;SDS011;74667;52.136;5.592;2024-02-28T07:08:15;39.58;;;24.65;;
23988;SDS011;74667;52.136;5.592;2024-02-28T07:10:40;40.10;;;23.00;;
23988;SDS011;74667;52.136;5.592;2024-02-28T07:13:08;39.78;;;22.45;;
23988;SDS011;74667;52.136;5.592;2024-02-28T07:15:33;43.88;;;23.95;;
23988;SDS011;74667;52.136;5.592;2024-02-28T07:17:58;43.97;;;24.85;;
23988;SDS011;74667;52.136;5.592;2024-02-28T07:20:23;38.77;;;22.93;;
23988;SDS011;74667;52.136;5.592;2024-02-28T07:22:49;36.97;;;23.35;;
23988;SDS011;74667;52.136;5.592;2024-02-28T07:25:14;37.93;;;24.73;;
23988;SDS011;74667;52.136;5.592;2024-02-28T07:27:40;40.70;;;24.55;;
23988;SDS011;74667;52.136;5.592;2024-02-28T07:30:05;43.07;;;26.10;;
23988;SDS011;74667;52.136;5.592;2024-02-28T07:32:31;46.40;;;24.70;;
23988;SDS011;74667;52.136;5.592;2024-02-28T07:34:59;43.67;;;25.27;;
23988;SDS011;74667;52.136;5.592;2024-02-28T07:37:25;45.15;;;25.70;;
23988;SDS011;74667;52.136;5.592;2024-02-28T07:39:50;44.77;;;26.10;;
23988;SDS011;74667;52.136;5.592;2024-02-28T07:42:15;44.50;;;25.63;;
23988;SDS011;74667;52.136;5.592;2024-02-28T07:44:40;41.27;;;25.90;;
23988;SDS011;74667;52.136;5.592;2024-02-28T07:47:06;43.40;;;26.70;;
23988;SDS011;74667;52.136;5.592;2024-02-28T07:49:31;40.20;;;27.50;;
23988;SDS011;74667;52.136;5.592;2024-02-28T07:51:56;41.70;;;26.67;;
23988;SDS011;74667;52.136;5.592;2024-02-28T07:54:21;42.53;;;26.20;;
23988;SDS011;74667;52.136;5.592;2024-02-28T07:56:47;42.35;;;27.23;;
23988;SDS011;74667;52.136;5.592;2024-02-28T07:59:12;42.92;;;26.65;;
23988;SDS011;74667;52.136;5.592;2024-02-28T08:01:37;44.05;;;28.13;;
23988;SDS011;74667;52.136;5.592;2024-02-28T08:04:04;42.58;;;28.55;;
23988;SDS011;74667;52.136;5.592;2024-02-28T08:06:29;45.33;;;26.95;;
23988;SDS011;74667;52.136;5.592;2024-02-28T08:08:56;43.45;;;29.05;;
23988;SDS011;74667;52.136;5.592;2024-02-28T08:11:21;49.80;;;29.33;;
23988;SDS011;74667;52.136;5.592;2024-02-28T08:13:46;47.00;;;27.95;;
23988;SDS011;74667;52.136;5.592;2024-02-28T08:16:11;47.35;;;29.50;;
23988;SDS011;74667;52.136;5.592;2024-02-28T08:18:36;44.70;;;27.90;;
23988;SDS011;74667;52.136;5.592;2024-02-28T08:21:02;48.05;;;29.85;;
23988;SDS011;74667;52.136;5.592;2024-02-28T08:23:29;46.00;;;28.58;;
23988;SDS011;74667;52.136;5.592;2024-02-28T08:25:54;51.55;;;29.17;;
23988;SDS011;74667;52.136;5.592;2024-02-28T08:28:19;50.72;;;28.45;;
23988;SDS011;74667;52.136;5.592;2024-02-28T08:30:44;53.58;;;29.23;;
23988;SDS011;74667;52.136;5.592;2024-02-28T08:33:09;47.83;;;29.88;;
23988;SDS011;74667;52.136;5.592;2024-02-28T08:35:35;50.70;;;29.77;;
23988;SDS011;74667;52.136;5.592;2024-02-28T08:38:00;47.53;;;29.52;;
23988;SDS011;74667;52.136;5.592;2024-02-28T08:40:27;50.80;;;31.70;;
23988;SDS011;74667;52.136;5.592;2024-02-28T08:42:52;50.30;;;30.95;;
23988;SDS011;74667;52.136;5.592;2024-02-28T08:45:19;46.95;;;29.98;;
23988;SDS011;74667;52.136;5.592;2024-02-28T08:47:44;50.05;;;28.77;;
23988;SDS011;74667;52.136;5.592;2024-02-28T08:50:09;48.47;;;29.42;;
23988;SDS011;74667;52.136;5.592;2024-02-28T08:52:35;46.60;;;28.30;;
23988;SDS011;74667;52.136;5.592;2024-02-28T08:55:00;45.13;;;27.87;;
23988;SDS011;74667;52.136;5.592;2024-02-28T08:57:25;52.03;;;29.50;;
23988;SDS011;74667;52.136;5.592;2024-02-28T08:59:50;51.90;;;28.45;;
23988;SDS011;74667;52.136;5.592;2024-02-28T09:02:15;44.42;;;28.25;;
23988;SDS011;74667;52.136;5.592;2024-02-28T09:04:40;48.27;;;27.17;;
23988;SDS011;74667;52.136;5.592;2024-02-28T09:07:06;43.72;;;27.17;;
23988;SDS011;74667;52.136;5.592;2024-02-28T09:09:31;42.03;;;27.23;;
23988;SDS011;74667;52.136;5.592;2024-02-28T09:11:59;46.03;;;28.45;;
23988;SDS011;74667;52.136;5.592;2024-02-28T09:14:24;47.70;;;29.13;;
23988;SDS011;74667;52.136;5.592;2024-02-28T09:16:49;49.38;;;29.13;;
23988;SDS011;74667;52.136;5.592;2024-02-28T09:19:14;49.63;;;27.43;;
23988;SDS011;74667;52.136;5.592;2024-02-28T09:21:39;51.67;;;27.48;;
23988;SDS011;74667;52.136;5.592;2024-02-28T09:24:05;42.50;;;26.67;;
23988;SDS011;74667;52.136;5.592;2024-02-28T09:26:30;41.38;;;27.08;;
23988;SDS011;74667;52.136;5.592;2024-02-28T09:28:55;43.10;;;26.70;;
23988;SDS011;74667;52.136;5.592;2024-02-28T09:31:20;46.13;;;28.47;;
23988;SDS011;74667;52.136;5.592;2024-02-28T09:33:45;45.78;;;27.25;;
23988;SDS011;74667;52.136;5.592;2024-02-28T09:36:11;41.20;;;27.80;;
23988;SDS011;74667;52.136;5.592;2024-02-28T09:38:36;45.22;;;27.95;;
23988;SDS011;74667;52.136;5.592;2024-02-28T09:41:02;48.55;;;30.10;;
23988;SDS011;74667;52.136;5.592;2024-02-28T09:45:53;46.97;;;28.27;;
23988;SDS011;74667;52.136;5.592;2024-02-28T09:48:18;47.00;;;28.30;;
23988;SDS011;74667;52.136;5.592;2024-02-28T09:50:45;48.92;;;27.63;;
23988;SDS011;74667;52.136;5.592;2024-02-28T09:53:10;48.53;;;27.63;;
23988;SDS011;74667;52.136;5.592;2024-02-28T09:55:35;43.80;;;27.70;;
23988;SDS011;74667;52.136;5.592;2024-02-28T09:58:00;49.03;;;27.60;;
23988;SDS011;74667;52.136;5.592;2024-02-28T10:00:26;42.70;;;27.38;;
23988;SDS011;74667;52.136;5.592;2024-02-28T10:02:51;53.45;;;27.75;;
23988;SDS011;74667;52.136;5.592;2024-02-28T10:05:18;46.80;;;28.83;;
23988;SDS011;74667;52.136;5.592;2024-02-28T10:07:44;54.92;;;30.55;;
23988;SDS011;74667;52.136;5.592;2024-02-28T10:10:10;55.42;;;30.55;;
23988;SDS011;74667;52.136;5.592;2024-02-28T10:12:35;52.38;;;30.30;;
23988;SDS011;74667;52.136;5.592;2024-02-28T10:15:00;52.40;;;30.33;;
23988;SDS011;74667;52.136;5.592;2024-02-28T10:17:26;55.00;;;32.22;;
23988;SDS011;74667;52.136;5.592;2024-02-28T10:19:51;54.10;;;32.90;;
23988;SDS011;74667;52.136;5.592;2024-02-28T10:22:17;57.80;;;33.47;;
23988;SDS011;74667;52.136;5.592;2024-02-28T10:24:42;61.50;;;34.17;;
23988;SDS011;74667;52.136;5.592;2024-02-28T10:27:07;57.70;;;32.80;;
23988;SDS011;74667;52.136;5.592;2024-02-28T10:29:32;55.20;;;32.58;;
23988;SDS011;74667;52.136;5.592;2024-02-28T10:31:58;59.38;;;33.88;;
23988;SDS011;74667;52.136;5.592;2024-02-28T10:34:23;58.63;;;33.10;;
23988;SDS011;74667;52.136;5.592;2024-02-28T10:36:48;57.30;;;33.53;;
23988;SDS011;74667;52.136;5.592;2024-02-28T10:39:14;63.90;;;33.42;;
23988;SDS011;74667;52.136;5.592;2024-02-28T10:41:39;58.28;;;32.95;;
23988;SDS011;74667;52.136;5.592;2024-02-28T10:44:04;58.63;;;32.95;;
23988;SDS011;74667;52.136;5.592;2024-02-28T10:46:30;51.43;;;32.03;;
23988;SDS011;74667;52.136;5.592;2024-02-28T10:48:55;53.40;;;31.92;;
23988;SDS011;74667;52.136;5.592;2024-02-28T10:51:23;54.40;;;31.55;;
23988;SDS011;74667;52.136;5.592;2024-02-28T10:53:49;56.90;;;32.40;;
23988;SDS011;74667;52.136;5.592;2024-02-28T10:56:14;65.53;;;35.30;;
23988;SDS011;74667;52.136;5.592;2024-02-28T10:58:44;58.08;;;34.38;;
23988;SDS011;74667;52.136;5.592;2024-02-28T11:01:11;61.42;;;35.17;;
23988;SDS011;74667;52.136;5.592;2024-02-28T11:03:36;59.63;;;34.47;;
23988;SDS011;74667;52.136;5.592;2024-02-28T11:06:01;62.47;;;34.53;;
23988;SDS011;74667;52.136;5.592;2024-02-28T11:08:27;57.25;;;34.05;;
23988;SDS011;74667;52.136;5.592;2024-02-28T11:11:02;58.78;;;34.72;;
23988;SDS011;74667;52.136;5.592;2024-02-28T11:13:29;64.53;;;34.38;;
23988;SDS011;74667;52.136;5.592;2024-02-28T11:15:56;67.10;;;36.75;;
23988;SDS011;74667;52.136;5.592;2024-02-28T11:18:32;59.55;;;34.33;;
23988;SDS011;74667;52.136;5.592;2024-02-28T11:20:57;62.50;;;35.03;;
23988;SDS011;74667;52.136;5.592;2024-02-28T11:23:22;58.07;;;33.17;;
23988;SDS011;74667;52.136;5.592;2024-02-28T11:25:47;55.03;;;32.95;;
23988;SDS011;74667;52.136;5.592;2024-02-28T11:28:13;59.00;;;34.70;;
23988;SDS011;74667;52.136;5.592;2024-02-28T11:30:40;61.03;;;35.03;;
23988;SDS011;74667;52.136;5.592;2024-02-28T11:33:06;62.65;;;35.47;;
23988;SDS011;74667;52.136;5.592;2024-02-28T11:35:33;62.92;;;34.67;;
23988;SDS011;74667;52.136;5.592;2024-02-28T11:37:59;61.28;;;33.70;;
23988;SDS011;74667;52.136;5.592;2024-02-28T11:40:24;54.72;;;33.03;;
23988;SDS011;74667;52.136;5.592;2024-02-28T11:42:53;57.30;;;33.92;;
23988;SDS011;74667;52.136;5.592;2024-02-28T11:45:19;69.28;;;34.08;;
23988;SDS011;74667;52.136;5.592;2024-02-28T11:47:44;55.75;;;33.08;;
23988;SDS011;74667;52.136;5.592;2024-02-28T11:50:09;58.55;;;33.67;;
23988;SDS011;74667;52.136;5.592;2024-02-28T11:52:35;55.50;;;32.63;;
23988;SDS011;74667;52.136;5.592;2024-02-28T11:55:00;54.33;;;31.70;;
23988;SDS011;74667;52.136;5.592;2024-02-28T11:57:26;57.38;;;31.80;;
23988;SDS011;74667;52.136;5.592;2024-02-28T11:59:51;49.80;;;31.95;;
23988;SDS011;74667;52.136;5.592;2024-02-28T12:02:16;55.83;;;30.88;;
23988;SDS011;74667;52.136;5.592;2024-02-28T12:04:42;50.85;;;30.17;;
23988;SDS011;74667;52.136;5.592;2024-02-28T12:07:13;50.05;;;31.00;;
23988;SDS011;74667;52.136;5.592;2024-02-28T12:09:38;53.30;;;31.38;;
23988;SDS011;74667;52.136;5.592;2024-02-28T12:12:04;53.80;;;32.53;;
23988;SDS011;74667;52.136;5.592;2024-02-28T12:14:36;50.38;;;30.50;;
23988;SDS011;74667;52.136;5.592;2024-02-28T12:17:02;52.83;;;30.92;;
23988;SDS011;74667;52.136;5.592;2024-02-28T12:19:28;55.65;;;30.80;;
23988;SDS011;74667;52.136;5.592;2024-02-28T12:21:53;53.63;;;30.50;;
23988;SDS011;74667;52.136;5.592;2024-02-28T12:24:19;51.53;;;30.20;;
23988;SDS011;74667;52.136;5.592;2024-02-28T12:26:44;55.93;;;31.33;;
23988;SDS011;74667;52.136;5.592;2024-02-28T12:29:09;58.97;;;31.35;;
23988;SDS011;74667;52.136;5.592;2024-02-28T12:31:35;50.42;;;30.85;;
23988;SDS011;74667;52.136;5.592;2024-02-28T12:34:01;53.80;;;31.45;;
23988;SDS011;74667;52.136;5.592;2024-02-28T12:36:28;57.67;;;32.95;;
23988;SDS011;74667;52.136;5.592;2024-02-28T12:38:54;57.28;;;33.05;;
23988;SDS011;74667;52.136;5.592;2024-02-28T12:41:19;55.13;;;32.87;;
23988;SDS011;74667;52.136;5.592;2024-02-28T12:43:44;56.85;;;31.35;;
23988;SDS011;74667;52.136;5.592;2024-02-28T12:46:10;51.13;;;29.30;;
23988;SDS011;74667;52.136;5.592;2024-02-28T12:48:38;53.47;;;30.70;;
23988;SDS011;74667;52.136;5.592;2024-02-28T12:51:04;58.90;;;32.25;;
23988;SDS011;74667;52.136;5.592;2024-02-28T12:53:30;56.38;;;30.90;;
23988;SDS011;74667;52.136;5.592;2024-02-28T12:55:55;51.63;;;30.63;;
23988;SDS011;74667;52.136;5.592;2024-02-28T12:58:20;52.63;;;31.10;;
23988;SDS011;74667;52.136;5.592;2024-02-28T13:00:45;52.77;;;29.90;;
23988;SDS011;74667;52.136;5.592;2024-02-28T13:03:11;51.65;;;27.90;;
23988;SDS011;74667;52.136;5.592;2024-02-28T13:05:36;49.40;;;28.40;;
23988;SDS011;74667;52.136;5.592;2024-02-28T13:08:02;49.17;;;29.17;;
23988;SDS011;74667;52.136;5.592;2024-02-28T13:10:28;53.42;;;28.55;;
23988;SDS011;74667;52.136;5.592;2024-02-28T13:12:54;53.17;;;29.08;;
23988;SDS011;74667;52.136;5.592;2024-02-28T13:15:19;50.40;;;28.60;;
23988;SDS011;74667;52.136;5.592;2024-02-28T13:17:44;52.90;;;29.38;;
23988;SDS011;74667;52.136;5.592;2024-02-28T13:20:11;57.95;;;29.58;;
23988;SDS011;74667;52.136;5.592;2024-02-28T13:22:37;48.60;;;26.88;;
23988;SDS011;74667;52.136;5.592;2024-02-28T13:25:02;43.20;;;26.45;;
23988;SDS011;74667;52.136;5.592;2024-02-28T13:27:27;48.83;;;27.20;;
23988;SDS011;74667;52.136;5.592;2024-02-28T13:29:52;45.25;;;27.95;;
23988;SDS011;74667;52.136;5.592;2024-02-28T13:32:17;46.03;;;28.90;;
23988;SDS011;74667;52.136;5.592;2024-02-28T13:34:43;48.70;;;28.77;;
23988;SDS011;74667;52.136;5.592;2024-02-28T13:37:08;44.22;;;28.10;;
23988;SDS011;74667;52.136;5.592;2024-02-28T13:39:33;46.90;;;29.98;;
23988;SDS011;74667;52.136;5.592;2024-02-28T13:41:59;45.53;;;28.08;;
23988;SDS011;74667;52.136;5.592;2024-02-28T13:44:25;46.95;;;27.10;;
23988;SDS011;74667;52.136;5.592;2024-02-28T13:46:50;45.70;;;26.00;;
23988;SDS011;74667;52.136;5.592;2024-02-28T13:49:16;43.88;;;26.48;;
23988;SDS011;74667;52.136;5.592;2024-02-28T13:51:42;40.67;;;25.70;;
23988;SDS011;74667;52.136;5.592;2024-02-28T13:54:07;39.55;;;25.23;;
23988;SDS011;74667;52.136;5.592;2024-02-28T13:56:32;35.42;;;24.35;;
23988;SDS011;74667;52.136;5.592;2024-02-28T13:58:58;40.65;;;24.40;;
23988;SDS011;74667;52.136;5.592;2024-02-28T14:01:24;40.75;;;24.27;;
23988;SDS011;74667;52.136;5.592;2024-02-28T14:03:51;46.13;;;24.23;;
23988;SDS011;74667;52.136;5.592;2024-02-28T14:06:16;39.40;;;21.83;;
23988;SDS011;74667;52.136;5.592;2024-02-28T14:08:41;34.17;;;21.92;;
23988;SDS011;74667;52.136;5.592;2024-02-28T14:11:06;34.15;;;22.35;;
23988;SDS011;74667;52.136;5.592;2024-02-28T14:13:31;31.02;;;19.92;;
23988;SDS011;74667;52.136;5.592;2024-02-28T14:15:56;32.75;;;20.15;;